Shin Mei Maru — JG5617 — position and weather

sailwx.info

Track history (hours):
 
Tides and Currents Weather Stations Pressure Air Temp Water Temp Dewpoint Dewpoint Depression Visibility Wind Speed Wind Dir Waves Ship Positions

Shin Mei Maru

Last reported at 2014-Aug-30 20:10 UTC. Time now 2014-Sep-01 07:49 UTC.
Position N 35°56' E 141°03'.

Length 160 m; draft 6.8 m.

Type: Cargo ship. MMSI: 431100922.

Date/timePositionNaut miles runAvg speedWind from/ knotsBaromVisibWave heightAir tempDewpointWater temp
2014-Aug-30 20:10N 35°56' E 141°03'1117.8
2014-Aug-30 19:33N 35°46' E 140°60'1817.4
2014-Aug-30 18:33N 35°30' E 140°51'1717.6
2014-Aug-30 17:33N 35°17' E 140°37'1817.7
2014-Aug-30 16:33N 35°03' E 140°23'1818.5
2014-Aug-30 15:33N 34°53' E 140°04'1717.6
2014-Aug-30 14:33N 34°54' E 139°42'2019.6
2014-Aug-30 13:33N 35°13' E 139°46'1313.1
2014-Aug-30 12:33N 35°26' E 139°45'1211.7
2014-Aug-30 11:33N 35°38' E 139°46'0 0.1
2014-Aug-30 10:33N 35°38' E 139°46'0 0.0
2014-Aug-30 09:33N 35°38' E 139°46'0 0.0
2014-Aug-30 08:30N 35°38' E 139°46'0 0.0
2014-Aug-30 07:33N 35°38' E 139°46'0 0.0
2014-Aug-30 06:30N 35°38' E 139°46'0 0.1
2014-Aug-30 05:33N 35°38' E 139°46'1110.6
2014-Aug-30 04:33N 35°28' E 139°51'1313.0
2014-Aug-30 03:34N 35°16' E 139°46'1615.5
2014-Aug-30 02:33N 35°01' E 139°40'23815.8
2014-Aug-29 11:33N 34°10' E 134°58'1919.0
2014-Aug-29 10:33N 34°28' E 135°05'1616.4
2014-Aug-29 09:33N 34°36' E 135°22'2 2.0
2014-Aug-29 08:33N 34°37' E 135°25'0 0.0
2014-Aug-29 06:33N 34°37' E 135°25'0 0.0
2014-Aug-29 05:29N 34°37' E 135°25'0 0.0
2014-Aug-29 04:29N 34°37' E 135°25'0 0.0
2014-Aug-29 03:29N 34°37' E 135°25'0 0.0
2014-Aug-29 02:29N 34°37' E 135°25'0 0.0
2014-Aug-29 01:33N 34°37' E 135°25'1313.5
2014-Aug-29 00:33N 34°30' E 135°10'1918.8
2014-Aug-28 23:33N 34°14' E 134°59'22815.2
2014-Aug-28 08:33N 34°59' E 139°30'1918.7
2014-Aug-28 07:33N 35°12' E 139°46'1313.2
2014-Aug-28 06:34N 35°25' E 139°44'1211.9
2014-Aug-28 05:33N 35°37' E 139°46'1 0.6
2014-Aug-28 04:33N 35°38' E 139°46'0 0.0
2014-Aug-28 03:18N 35°38' E 139°46'0 0.0
2014-Aug-28 02:33N 35°38' E 139°46'0 0.0
2014-Aug-28 01:33N 35°38' E 139°46'0 0.0
2014-Aug-28 00:24N 35°38' E 139°46'0 0.0
2014-Aug-27 23:12N 35°38' E 139°46'0 0.0
2014-Aug-27 22:27N 35°38' E 139°46'4 4.2
2014-Aug-27 21:34N 35°35' E 139°48'1111.3
2014-Aug-27 20:33N 35°23' E 139°46'1010.5
2014-Aug-27 19:33N 35°13' E 139°47'1716.8
2014-Aug-27 18:33N 34°56' E 139°44'1413.8
2014-Aug-27 17:33N 34°52' E 140°00'1717.5
2014-Aug-27 16:33N 35°01' E 140°19'1717.1
2014-Aug-27 15:33N 35°12' E 140°35'1817.7
2014-Aug-27 14:33N 35°26' E 140°48'1918.4
2014-Aug-27 13:32N 35°43' E 140°60'1918.5
2014-Aug-27 12:30N 36°01' E 141°06'  
2014-Aug-23 03:04N 35°38' E 139°46'0 0.0
2014-Aug-23 02:31N 35°38' E 139°46'0 0.0
2014-Aug-23 01:28N 35°38' E 139°46'0 0.0
2014-Aug-23 00:16N 35°38' E 139°46'0 0.0
2014-Aug-22 23:28N 35°38' E 139°46'0 0.0
2014-Aug-22 22:28N 35°38' E 139°46'0 0.0
2014-Aug-22 21:16N 35°38' E 139°46'0 0.0
2014-Aug-22 20:28N 35°38' E 139°46'0 0.0
2014-Aug-22 19:31N 35°38' E 139°46'0 0.0
2014-Aug-22 18:28N 35°38' E 139°46'0 0.0
2014-Aug-22 17:28N 35°38' E 139°46'0 0.0
2014-Aug-22 16:16N 35°38' E 139°46'0 0.0
2014-Aug-22 15:16N 35°38' E 139°46'0 0.0
2014-Aug-22 14:25N 35°38' E 139°46'0 0.0
2014-Aug-22 13:31N 35°38' E 139°46'0 0.0
2014-Aug-22 12:19N 35°38' E 139°46'0 0.0
2014-Aug-22 11:31N 35°38' E 139°46'0 0.0
2014-Aug-22 10:31N 35°38' E 139°46'0 0.0
2014-Aug-22 09:25N 35°38' E 139°46'0 0.0
2014-Aug-22 08:25N 35°38' E 139°46'0 0.0
2014-Aug-22 07:25N 35°38' E 139°46'0 0.0
2014-Aug-22 06:22N 35°38' E 139°46'0 0.0
2014-Aug-22 05:28N 35°38' E 139°46'0 0.0
2014-Aug-22 04:31N 35°38' E 139°46'0 0.0
2014-Aug-22 03:31N 35°38' E 139°46'0 0.0
2014-Aug-22 02:31N 35°38' E 139°46'0 0.0
2014-Aug-22 01:28N 35°38' E 139°46'0 0.0
2014-Aug-22 00:28N 35°38' E 139°46'0 0.0
2014-Aug-21 23:31N 35°38' E 139°46'0 0.0
2014-Aug-21 22:28N 35°38' E 139°46'3 3.5
2014-Aug-21 21:34N 35°35' E 139°48'1312.6
2014-Aug-21 20:33N 35°23' E 139°46'1010.0
2014-Aug-21 19:33N 35°13' E 139°47'1717.2
2014-Aug-21 18:33N 34°56' E 139°43'1514.9
2014-Aug-21 17:33N 34°53' E 140°00'1515.5
2014-Aug-21 16:33N 34°60' E 140°17'1615.5
2014-Aug-21 15:33N 35°10' E 140°32'1616.5
2014-Aug-21 14:33N 35°23' E 140°44'1717.1
2014-Aug-21 13:33N 35°37' E 140°56'1717.1
2014-Aug-21 12:33N 35°52' E 141°05'1817.5
2014-Aug-21 11:33N 36°09' E 141°10'  
Track history (hours):
 
Tides and Currents Weather Stations Pressure Air Temp Water Temp Dewpoint Dewpoint Depression Visibility Wind Speed Wind Dir Waves Ship Positions

Shin Mei Maru

Last reported at 2014-Aug-30 20:10 UTC. Time now 2014-Sep-01 07:49 UTC.
Position N 35°56' E 141°03'.

Length 160 m; draft 6.8 m.

Type: Cargo ship. MMSI: 431100922.

Date/timePositionNaut miles runAvg speedWind from/ knotsBaromVisibWave heightAir tempDewpointWater temp
2014-Aug-30 20:10N 35°56' E 141°03'1117.8
2014-Aug-30 19:33N 35°46' E 140°60'1817.4
2014-Aug-30 18:33N 35°30' E 140°51'1717.6
2014-Aug-30 17:33N 35°17' E 140°37'1817.7
2014-Aug-30 16:33N 35°03' E 140°23'1818.5
2014-Aug-30 15:33N 34°53' E 140°04'1717.6
2014-Aug-30 14:33N 34°54' E 139°42'2019.6
2014-Aug-30 13:33N 35°13' E 139°46'1313.1
2014-Aug-30 12:33N 35°26' E 139°45'1211.7
2014-Aug-30 11:33N 35°38' E 139°46'0 0.1
2014-Aug-30 10:33N 35°38' E 139°46'0 0.0
2014-Aug-30 09:33N 35°38' E 139°46'0 0.0
2014-Aug-30 08:30N 35°38' E 139°46'0 0.0
2014-Aug-30 07:33N 35°38' E 139°46'0 0.0
2014-Aug-30 06:30N 35°38' E 139°46'0 0.1
2014-Aug-30 05:33N 35°38' E 139°46'1110.6
2014-Aug-30 04:33N 35°28' E 139°51'1313.0
2014-Aug-30 03:34N 35°16' E 139°46'1615.5
2014-Aug-30 02:33N 35°01' E 139°40'23815.8
2014-Aug-29 11:33N 34°10' E 134°58'1919.0
2014-Aug-29 10:33N 34°28' E 135°05'1616.4
2014-Aug-29 09:33N 34°36' E 135°22'2 2.0
2014-Aug-29 08:33N 34°37' E 135°25'0 0.0
2014-Aug-29 06:33N 34°37' E 135°25'0 0.0
2014-Aug-29 05:29N 34°37' E 135°25'0 0.0
2014-Aug-29 04:29N 34°37' E 135°25'0 0.0
2014-Aug-29 03:29N 34°37' E 135°25'0 0.0
2014-Aug-29 02:29N 34°37' E 135°25'0 0.0
2014-Aug-29 01:33N 34°37' E 135°25'1313.5
2014-Aug-29 00:33N 34°30' E 135°10'1918.8
2014-Aug-28 23:33N 34°14' E 134°59'22815.2
2014-Aug-28 08:33N 34°59' E 139°30'1918.7
2014-Aug-28 07:33N 35°12' E 139°46'1313.2
2014-Aug-28 06:34N 35°25' E 139°44'1211.9
2014-Aug-28 05:33N 35°37' E 139°46'1 0.6
2014-Aug-28 04:33N 35°38' E 139°46'0 0.0
2014-Aug-28 03:18N 35°38' E 139°46'0 0.0
2014-Aug-28 02:33N 35°38' E 139°46'0 0.0
2014-Aug-28 01:33N 35°38' E 139°46'0 0.0
2014-Aug-28 00:24N 35°38' E 139°46'0 0.0
2014-Aug-27 23:12N 35°38' E 139°46'0 0.0
2014-Aug-27 22:27N 35°38' E 139°46'4 4.2
2014-Aug-27 21:34N 35°35' E 139°48'1111.3
2014-Aug-27 20:33N 35°23' E 139°46'1010.5
2014-Aug-27 19:33N 35°13' E 139°47'1716.8
2014-Aug-27 18:33N 34°56' E 139°44'1413.8
2014-Aug-27 17:33N 34°52' E 140°00'1717.5
2014-Aug-27 16:33N 35°01' E 140°19'1717.1
2014-Aug-27 15:33N 35°12' E 140°35'1817.7
2014-Aug-27 14:33N 35°26' E 140°48'1918.4
2014-Aug-27 13:32N 35°43' E 140°60'1918.5
2014-Aug-27 12:30N 36°01' E 141°06'  
2014-Aug-23 03:04N 35°38' E 139°46'0 0.0
2014-Aug-23 02:31N 35°38' E 139°46'0 0.0
2014-Aug-23 01:28N 35°38' E 139°46'0 0.0
2014-Aug-23 00:16N 35°38' E 139°46'0 0.0
2014-Aug-22 23:28N 35°38' E 139°46'0 0.0
2014-Aug-22 22:28N 35°38' E 139°46'0 0.0
2014-Aug-22 21:16N 35°38' E 139°46'0 0.0
2014-Aug-22 20:28N 35°38' E 139°46'0 0.0
2014-Aug-22 19:31N 35°38' E 139°46'0 0.0
2014-Aug-22 18:28N 35°38' E 139°46'0 0.0
2014-Aug-22 17:28N 35°38' E 139°46'0 0.0
2014-Aug-22 16:16N 35°38' E 139°46'0 0.0
2014-Aug-22 15:16N 35°38' E 139°46'0 0.0
2014-Aug-22 14:25N 35°38' E 139°46'0 0.0
2014-Aug-22 13:31N 35°38' E 139°46'0 0.0
2014-Aug-22 12:19N 35°38' E 139°46'0 0.0
2014-Aug-22 11:31N 35°38' E 139°46'0 0.0
2014-Aug-22 10:31N 35°38' E 139°46'0 0.0
2014-Aug-22 09:25N 35°38' E 139°46'0 0.0
2014-Aug-22 08:25N 35°38' E 139°46'0 0.0
2014-Aug-22 07:25N 35°38' E 139°46'0 0.0
2014-Aug-22 06:22N 35°38' E 139°46'0 0.0
2014-Aug-22 05:28N 35°38' E 139°46'0 0.0
2014-Aug-22 04:31N 35°38' E 139°46'0 0.0
2014-Aug-22 03:31N 35°38' E 139°46'0 0.0
2014-Aug-22 02:31N 35°38' E 139°46'0 0.0
2014-Aug-22 01:28N 35°38' E 139°46'0 0.0
2014-Aug-22 00:28N 35°38' E 139°46'0 0.0
2014-Aug-21 23:31N 35°38' E 139°46'0 0.0
2014-Aug-21 22:28N 35°38' E 139°46'3 3.5
2014-Aug-21 21:34N 35°35' E 139°48'1312.6
2014-Aug-21 20:33N 35°23' E 139°46'1010.0
2014-Aug-21 19:33N 35°13' E 139°47'1717.2
2014-Aug-21 18:33N 34°56' E 139°43'1514.9
2014-Aug-21 17:33N 34°53' E 140°00'1515.5
2014-Aug-21 16:33N 34°60' E 140°17'1615.5
2014-Aug-21 15:33N 35°10' E 140°32'1616.5
2014-Aug-21 14:33N 35°23' E 140°44'1717.1
2014-Aug-21 13:33N 35°37' E 140°56'1717.1
2014-Aug-21 12:33N 35°52' E 141°05'1817.5
2014-Aug-21 11:33N 36°09' E 141°10'  

Dump ship's entire track history